Time;durP1;ratioP1;P1;durP2;ratioP2;P2;SDS_P1;SDS_P2;PMS_P1;PMS_P2;Temp;Humidity;BMP_temperature;BMP_pressure;BME280_temperature;BME280_humidity;BME280_pressure;Samples;Min_cycle;Max_cycle;Signal;HPM_P1;HPM_P2
2022/05/09 00:00:27;;;;;;;10.80;9.70;;;;;;;11.51;100.00;98862.69;5074233;28;20238;-66
2022/05/09 00:02:53;;;;;;;10.90;9.80;;;;;;;11.56;100.00;98857.97;5074484;28;20219;-66
2022/05/09 00:05:22;;;;;;;11.13;10.03;;;;;;;11.58;100.00;98856.06;5074313;28;20218;-65
2022/05/09 00:07:51;;;;;;;10.70;9.70;;;;;;;11.62;100.00;98860.25;5074392;28;20585;-66
2022/05/09 00:10:20;;;;;;;10.40;9.40;;;;;;;11.62;100.00;98860.25;5074021;28;20219;-66
2022/05/09 00:12:47;;;;;;;12.20;9.97;;;;;;;11.59;100.00;98865.72;5073977;28;20226;-66
2022/05/09 00:15:16;;;;;;;10.93;9.93;;;;;;;11.55;100.00;98864.22;5074015;28;20675;-66
2022/05/09 00:17:45;;;;;;;11.00;9.90;;;;;;;11.57;100.00;98862.31;5074133;28;20298;-66
2022/05/09 00:20:12;;;;;;;11.67;10.53;;;;;;;11.59;100.00;98865.72;5074028;28;20237;-66
2022/05/09 00:22:49;;;;;;;11.10;10.00;;;;;;;11.57;100.00;98860.50;5074028;28;20218;-66
2022/05/09 00:25:18;;;;;;;11.00;9.90;;;;;;;11.61;100.00;98858.56;5071161;28;20218;-66
2022/05/09 00:27:45;;;;;;;10.90;9.80;;;;;;;11.57;100.00;98862.31;5069089;28;20210;-65
2022/05/09 00:30:12;;;;;;;12.53;11.13;;;;;;;11.60;100.00;98857.69;5073869;28;20238;-65
2022/05/09 00:32:39;;;;;;;12.40;10.47;;;;;;;11.61;100.00;98864.69;5073822;28;20210;-65
2022/05/09 00:35:07;;;;;;;11.97;10.77;;;;;;;11.65;100.00;98871.50;5073647;28;20211;-65
2022/05/09 00:37:34;;;;;;;11.80;10.60;;;;;;;11.64;100.00;98866.31;5066887;28;20215;-65
2022/05/09 00:40:01;;;;;;;11.90;10.70;;;;;;;11.44;100.00;98872.78;5073660;28;20237;-65
2022/05/09 00:42:29;;;;;;;12.57;10.33;;;;;;;11.27;100.00;98862.38;5073765;28;20244;-65
2022/05/09 00:44:55;;;;;;;11.37;10.27;;;;;;;11.15;100.00;98872.84;5073647;28;20224;-66
2022/05/09 00:47:22;;;;;;;10.90;9.90;;;;;;;11.17;100.00;98857.72;5066119;28;20696;-65
2022/05/09 00:49:54;;;;;;;12.37;11.07;;;;;;;11.18;100.00;98864.75;5072020;28;20637;-65
2022/05/09 00:52:25;;;;;;;12.43;11.13;;;;;;;11.14;100.00;98868.50;5073247;28;20218;-65
2022/05/09 00:54:57;;;;;;;12.70;10.80;;;;;;;11.15;100.00;98870.19;5073408;28;20211;-66
2022/05/09 00:57:27;;;;;;;13.33;11.10;;;;;;;11.18;100.00;98867.38;5073444;28;20257;-66
2022/05/09 01:00:07;;;;;;;11.90;10.70;;;;;;;11.13;100.00;98869.44;5073029;28;20239;-66
2022/05/09 01:02:35;;;;;;;11.67;10.47;;;;;;;11.09;100.00;98865.28;5073222;28;20258;-66
2022/05/09 01:05:03;;;;;;;11.93;10.63;;;;;;;11.05;100.00;98863.75;5073250;28;20233;-65
2022/05/09 01:07:31;;;;;;;10.93;9.83;;;;;;;11.06;100.00;98861.00;5073157;28;20593;-65
2022/05/09 01:09:58;;;;;;;11.77;10.57;;;;;;;11.10;100.00;98869.63;5073060;28;20219;-65
2022/05/09 01:12:29;;;;;;;12.83;10.87;;;;;;;11.10;100.00;98866.97;5073203;28;20213;-64
2022/05/09 01:15:00;;;;;;;12.03;10.73;;;;;;;11.14;100.00;98873.78;5066440;28;20219;-65
2022/05/09 01:17:28;;;;;;;12.37;11.07;;;;;;;11.14;100.00;98857.91;5071486;28;20252;-65
2022/05/09 01:19:56;;;;;;;11.43;10.33;;;;;;;11.13;100.00;98858.88;5073136;28;20238;-67
2022/05/09 01:22:27;;;;;;;11.77;10.57;;;;;;;11.12;100.00;98854.53;5073160;28;20560;-65
2022/05/09 01:24:56;;;;;;;12.30;11.00;;;;;;;11.09;100.00;98859.97;5073216;28;20222;-65
2022/05/09 01:27:23;;;;;;;11.73;10.60;;;;;;;11.06;100.00;98860.19;5072800;28;20217;-65
2022/05/09 01:29:55;;;;;;;11.27;10.17;;;;;;;11.08;100.00;98858.28;5073057;28;20221;-65
2022/05/09 01:32:28;;;;;;;12.80;11.43;;;;;;;11.09;100.00;98859.97;5072860;28;20220;-65
2022/05/09 01:34:59;;;;;;;13.60;10.60;;;;;;;11.10;100.00;98851.97;5072976;28;20215;-65
2022/05/09 01:37:29;;;;;;;11.77;10.57;;;;;;;11.05;100.00;98861.09;5065051;28;20232;-65
2022/05/09 01:39:56;;;;;;;11.87;10.67;;;;;;;11.06;100.00;98860.19;5072516;28;20686;-66
2022/05/09 01:42:23;;;;;;;11.53;9.90;;;;;;;11.00;100.00;98865.84;5071239;28;20248;-66
2022/05/09 01:44:50;;;;;;;11.60;10.40;;;;;;;10.94;100.00;98863.56;5072932;28;20254;-65
2022/05/09 01:50:01;;;;;;;14.33;11.90;;;;;;;10.93;100.00;98856.53;5072518;28;20234;-65
2022/05/09 01:52:29;;;;;;;14.37;12.20;;;;;;;10.92;100.00;98857.47;5073120;28;20664;-65
2022/05/09 01:54:55;;;;;;;12.67;11.33;;;;;;;10.92;100.00;98861.00;5071780;28;20219;-65
2022/05/09 01:57:21;;;;;;;14.00;12.60;;;;;;;10.93;100.00;98864.47;5072579;28;20609;-65
2022/05/09 01:59:48;;;;;;;14.20;12.00;;;;;;;10.97;100.00;98861.56;5072345;28;20690;-65
2022/05/09 02:02:17;;;;;;;14.33;12.70;;;;;;;10.92;100.00;98862.78;5072370;28;20213;-65
2022/05/09 02:04:43;;;;;;;14.00;12.60;;;;;;;10.93;100.00;98869.75;5072554;28;20211;-65
2022/05/09 02:07:13;;;;;;;13.13;11.73;;;;;;;10.91;100.00;98871.66;5072478;28;20220;-65
2022/05/09 02:09:42;;;;;;;13.73;12.30;;;;;;;10.87;100.00;98873.63;5071018;28;20599;-65
2022/05/09 02:12:10;;;;;;;13.87;12.33;;;;;;;10.85;100.00;98869.38;5072627;28;20566;-65
2022/05/09 02:14:37;;;;;;;13.37;12.00;;;;;;;10.85;100.00;98866.72;5072282;28;20670;-64
2022/05/09 02:17:04;;;;;;;14.80;12.63;;;;;;;10.85;100.00;98869.38;5072275;28;20219;-65
2022/05/09 02:19:31;;;;;;;14.57;13.07;;;;;;;10.85;100.00;98869.38;5072566;28;20585;-65
2022/05/09 02:21:59;;;;;;;13.80;12.37;;;;;;;10.83;100.00;98873.91;5072568;28;20235;-65
2022/05/09 02:24:27;;;;;;;14.27;12.50;;;;;;;10.80;100.00;98871.41;5072314;28;20265;-65
2022/05/09 02:26:55;;;;;;;16.33;12.73;;;;;;;10.78;100.00;98868.03;5072280;28;20203;-65
2022/05/09 02:29:21;;;;;;;14.00;11.63;;;;;;;10.75;100.00;98862.91;5072451;28;20226;-65
2022/05/09 02:31:48;;;;;;;13.30;11.90;;;;;;;10.72;100.00;98865.75;5072452;28;20230;-65
2022/05/09 02:34:15;;;;;;;14.13;12.50;;;;;;;10.70;100.00;98867.63;5070595;28;20217;-65
2022/05/09 02:36:42;;;;;;;14.07;12.63;;;;;;;10.70;100.00;98872.91;5072488;28;20215;-65
2022/05/09 02:39:09;;;;;;;13.50;12.10;;;;;;;10.68;100.00;98861.56;5072290;28;20207;-65
2022/05/09 02:41:36;;;;;;;13.23;11.83;;;;;;;10.66;100.00;98866.09;5071824;28;20247;-65
2022/05/09 02:44:04;;;;;;;13.47;12.07;;;;;;;10.62;100.00;98872.50;5072288;28;20611;-65
2022/05/09 02:46:30;;;;;;;13.17;11.77;;;;;;;10.63;100.00;98874.19;5072355;28;20553;-65
2022/05/09 02:48:59;;;;;;;14.70;13.10;;;;;;;10.64;100.00;98879.41;5074291;28;20224;-65
2022/05/09 02:51:27;;;;;;;14.50;13.00;;;;;;;10.63;100.00;98871.53;5075850;28;20220;-67
2022/05/09 02:53:54;;;;;;;14.07;12.67;;;;;;;10.56;100.00;98878.13;5075563;28;20659;-65
2022/05/09 02:56:21;;;;;;;14.77;13.10;;;;;;;10.56;100.00;98867.56;5075805;28;20223;-65
2022/05/09 02:58:47;;;;;;;13.87;12.43;;;;;;;10.52;100.00;98873.97;5075323;28;20269;-65
2022/05/09 03:01:15;;;;;;;14.60;12.50;;;;;;;10.53;100.00;98876.50;5073992;28;20243;-65
2022/05/09 03:06:26;;;;;;;14.67;13.17;;;;;;;10.50;100.00;98862.63;5075213;28;20221;-65
2022/05/09 03:08:52;;;;;;;14.63;12.73;;;;;;;10.49;100.00;98869.72;5075178;28;20226;-67
2022/05/09 03:11:19;;;;;;;14.73;13.13;;;;;;;10.46;100.00;98863.75;5075662;28;20208;-66
2022/05/09 03:13:45;;;;;;;14.67;13.10;;;;;;;10.42;100.00;98863.06;5075350;28;20219;-65
2022/05/09 03:16:12;;;;;;;14.47;12.97;;;;;;;10.42;100.00;98856.94;5075130;28;20680;-66
2022/05/09 03:18:40;;;;;;;13.40;12.00;;;;;;;10.41;100.00;98863.16;5075231;28;20265;-67
2022/05/09 03:21:06;;;;;;;13.30;11.90;;;;;;;10.33;100.00;98862.75;5075176;28;20235;-65
2022/05/09 03:23:33;;;;;;;13.10;11.60;;;;;;;10.17;100.00;98867.19;5074878;28;20673;-65
2022/05/09 03:26:00;;;;;;;12.70;11.40;;;;;;;10.05;100.00;98862.59;5073574;28;20214;-65
2022/05/09 03:28:27;;;;;;;13.27;11.20;;;;;;;10.02;100.00;98868.84;5074555;28;20753;-65
2022/05/09 03:30:56;;;;;;;14.20;12.33;;;;;;;9.98;100.00;98866.47;5075140;28;20572;-65
2022/05/09 03:33:24;;;;;;;14.17;12.67;;;;;;;10.02;100.00;98870.63;5074779;28;20222;-67
2022/05/09 03:35:52;;;;;;;14.90;13.40;;;;;;;10.00;100.00;98875.16;5075054;28;20223;-66
2022/05/09 03:38:19;;;;;;;13.73;12.20;;;;;;;10.02;100.00;98881.19;5074871;28;20215;-66
2022/05/09 03:40:46;;;;;;;14.27;12.53;;;;;;;10.01;100.00;98876.84;5074595;28;20239;-67
2022/05/09 03:43:12;;;;;;;13.80;12.23;;;;;;;9.97;100.00;98870.88;5074767;28;20250;-67
2022/05/09 03:45:41;;;;;;;13.60;12.20;;;;;;;9.86;100.00;98881.19;5074512;28;20217;-67
2022/05/09 03:48:08;;;;;;;15.00;12.10;;;;;;;9.84;100.00;98882.22;5074712;28;20217;-66
2022/05/09 03:50:35;;;;;;;14.27;12.70;;;;;;;9.78;100.00;98888.66;5074766;28;20222;-66
2022/05/09 03:53:03;;;;;;;13.80;12.07;;;;;;;9.87;100.00;98880.28;5072748;28;20591;-65
2022/05/09 03:55:29;;;;;;;15.37;13.73;;;;;;;9.86;100.00;98882.97;5074652;28;20215;-64
2022/05/09 03:57:57;;;;;;;14.83;12.87;;;;;;;9.89;100.00;98885.44;5074532;28;20226;-65
2022/05/09 04:00:26;;;;;;;15.07;13.43;;;;;;;9.89;100.00;98881.03;5073453;28;20213;-65
2022/05/09 04:02:53;;;;;;;15.50;12.83;;;;;;;9.93;100.00;98874.66;5074535;28;20226;-65
2022/05/09 04:05:20;;;;;;;16.07;14.03;;;;;;;9.99;100.00;98869.03;5074519;28;20223;-65
2022/05/09 04:07:48;;;;;;;14.53;12.70;;;;;;;10.06;100.00;98877.50;5074368;28;20549;-65
2022/05/09 04:10:18;;;;;;;15.97;13.70;;;;;;;10.11;100.00;98878.09;5074025;28;20215;-65
2022/05/09 04:12:44;;;;;;;15.43;13.83;;;;;;;10.14;100.00;98878.78;5074161;28;20226;-65
2022/05/09 04:17:56;;;;;;;15.70;13.20;;;;;;;10.19;100.00;98881.16;5073080;28;20757;-65
2022/05/09 04:20:24;;;;;;;14.20;12.70;;;;;;;10.32;100.00;98879.53;5073558;28;20222;-65
2022/05/09 04:22:51;;;;;;;15.23;13.20;;;;;;;10.35;100.00;98888.13;5073943;28;20626;-65
2022/05/09 04:25:19;;;;;;;12.60;11.40;;;;;;;10.29;100.00;98885.00;5073563;28;20221;-65
2022/05/09 04:27:46;;;;;;;14.43;12.43;;;;;;;10.23;100.00;98882.69;5073957;28;20219;-65
2022/05/09 04:30:13;;;;;;;14.63;13.07;;;;;;;10.22;100.00;98888.91;5073998;28;20595;-65
2022/05/09 04:32:41;;;;;;;13.87;12.47;;;;;;;10.25;100.00;98891.38;5074116;28;20230;-65
2022/05/09 04:35:11;;;;;;;13.90;11.40;;;;;;;10.31;100.00;98896.31;5073957;28;20243;-65
2022/05/09 04:37:39;;;;;;;14.73;12.80;;;;;;;10.35;100.00;98896.03;5073678;28;20220;-65
2022/05/09 04:40:07;;;;;;;13.43;11.70;;;;;;;10.40;100.00;98896.66;5073761;28;20247;-66
2022/05/09 04:42:35;;;;;;;13.17;11.83;;;;;;;10.48;100.00;98897.09;5073352;28;20251;-65
2022/05/09 04:45:02;;;;;;;13.73;12.33;;;;;;;10.54;100.00;98898.53;5072005;28;20218;-65
2022/05/09 04:47:28;;;;;;;14.10;12.63;;;;;;;10.63;100.00;98898.84;5073296;28;20216;-65
2022/05/09 04:49:54;;;;;;;14.93;11.90;;;;;;;10.70;100.00;98899.34;5073334;28;21279;-65
2022/05/09 04:52:21;;;;;;;14.67;12.33;;;;;;;10.79;100.00;98898.81;5073669;28;20289;-65
2022/05/09 04:54:47;;;;;;;13.70;12.30;;;;;;;10.86;100.00;98901.03;5073392;28;20230;-65
2022/05/09 04:57:14;;;;;;;13.10;11.73;;;;;;;10.94;100.00;98905.88;5073163;28;20216;-65
2022/05/09 04:59:42;;;;;;;14.00;12.60;;;;;;;11.04;100.00;98910.53;5073050;28;20674;-65
2022/05/09 05:02:08;;;;;;;13.57;12.17;;;;;;;11.14;100.00;98913.47;5073303;28;20596;-64
2022/05/09 05:04:34;;;;;;;14.37;12.87;;;;;;;11.21;100.00;98917.47;5072932;28;20708;-65
2022/05/09 05:07:01;;;;;;;13.90;12.50;;;;;;;11.31;100.00;98913.34;5073474;28;20238;-65
2022/05/09 05:09:28;;;;;;;15.43;12.37;;;;;;;11.50;100.00;98909.47;5073179;28;20236;-65
2022/05/09 05:11:54;;;;;;;14.90;13.10;;;;;;;11.66;100.00;98909.41;5071296;28;20227;-65
2022/05/09 05:14:21;;;;;;;14.30;12.80;;;;;;;11.75;100.00;98906.22;5073101;28;20211;-64
2022/05/09 05:17:00;;;;;;;14.87;12.67;;;;;;;11.87;100.00;98918.72;5073264;28;20216;-65
2022/05/09 05:19:28;;;;;;;13.60;12.00;;;;;;;11.96;100.00;98918.13;5073185;28;20605;-65
2022/05/09 05:21:54;;;;;;;14.50;13.00;;;;;;;12.06;100.00;98911.31;5073068;28;20292;-66
2022/05/09 05:24:21;;;;;;;13.77;12.37;;;;;;;12.18;100.00;98915.84;5072882;28;20212;-65
2022/05/09 05:26:47;;;;;;;15.97;12.87;;;;;;;12.42;100.00;98922.22;5073020;28;20213;-65
2022/05/09 05:29:15;;;;;;;13.20;11.77;;;;;;;13.03;100.00;98919.97;5073016;28;20559;-65
2022/05/09 05:31:41;;;;;;;12.47;11.13;;;;;;;13.80;100.00;98923.44;5073001;28;20242;-64
2022/05/09 05:34:09;;;;;;;13.57;12.17;;;;;;;14.66;100.00;98918.13;5072888;28;20300;-64
2022/05/09 05:36:36;;;;;;;11.77;10.57;;;;;;;15.54;96.84;98915.81;5071277;28;20210;-64
2022/05/09 05:39:03;;;;;;;12.00;10.53;;;;;;;16.33;92.09;98923.63;5072672;28;20211;-64
2022/05/09 05:41:31;;;;;;;12.10;10.90;;;;;;;17.00;87.08;98927.06;5072809;28;20326;-64
2022/05/09 05:43:58;;;;;;;10.87;9.77;;;;;;;17.64;84.25;98926.91;5072591;28;20226;-63
2022/05/09 05:46:24;;;;;;;11.77;10.57;;;;;;;18.09;80.19;98932.78;5072148;28;20222;-64
2022/05/09 05:48:51;;;;;;;11.30;10.23;;;;;;;18.41;78.00;98934.38;5069626;28;20215;-64
2022/05/09 05:51:19;;;;;;;11.93;10.07;;;;;;;18.68;75.47;98926.59;5072834;28;20221;-65
2022/05/09 05:53:46;;;;;;;10.33;9.33;;;;;;;19.12;73.96;98935.94;5072833;28;20211;-66
2022/05/09 05:56:13;;;;;;;10.93;9.83;;;;;;;19.23;71.90;98936.72;5072802;28;20211;-65
2022/05/09 05:58:40;;;;;;;10.53;9.30;;;;;;;19.45;70.56;98935.59;5072507;28;20691;-65
2022/05/09 06:01:06;;;;;;;10.53;9.53;;;;;;;19.39;68.92;98938.81;5068806;28;20222;-64
2022/05/09 06:03:33;;;;;;;9.40;8.60;;;;;;;19.42;69.43;98938.53;5060732;28;20610;-65
2022/05/09 06:05:59;;;;;;;10.27;9.23;;;;;;;19.44;68.92;98948.13;5072217;28;20243;-66
2022/05/09 06:08:27;;;;;;;10.90;9.80;;;;;;;19.76;67.87;98948.66;5072702;28;20221;-67
2022/05/09 06:10:54;;;;;;;10.10;9.10;;;;;;;19.77;67.58;98950.38;5072814;28;20207;-66
2022/05/09 06:13:20;;;;;;;10.27;9.37;;;;;;;19.62;67.68;98953.63;5072689;28;20218;-65
2022/05/09 06:15:47;;;;;;;11.07;9.90;;;;;;;19.68;67.32;98956.59;5072609;28;20219;-66
2022/05/09 06:18:13;;;;;;;9.93;9.03;;;;;;;19.70;67.33;98948.41;5072669;28;20587;-65
2022/05/09 06:20:43;;;;;;;9.80;8.90;;;;;;;19.97;66.00;98943.09;5072606;28;20246;-65
2022/05/09 06:23:13;;;;;;;9.53;8.63;;;;;;;20.23;64.16;98945.06;5073342;28;20611;-66
2022/05/09 06:25:43;;;;;;;9.17;8.20;;;;;;;20.36;63.33;98940.19;5076387;28;20211;-67
2022/05/09 06:28:10;;;;;;;9.50;8.63;;;;;;;20.89;62.53;98946.59;5075298;28;20222;-65
2022/05/09 06:30:36;;;;;;;9.07;8.27;;;;;;;21.21;61.01;98946.13;5075493;28;20219;-65
2022/05/09 06:33:03;;;;;;;9.17;8.27;;;;;;;21.42;59.43;98947.50;5076033;28;20219;-65
2022/05/09 06:35:30;;;;;;;8.27;7.57;;;;;;;21.56;58.25;98951.47;5076159;28;20211;-65
2022/05/09 06:37:58;;;;;;;8.00;7.30;;;;;;;21.58;58.02;98955.72;5075782;28;20694;-65
2022/05/09 06:40:25;;;;;;;9.23;8.10;;;;;;;21.24;59.44;98952.03;5075904;28;20589;-65
2022/05/09 06:42:54;;;;;;;10.17;9.27;;;;;;;20.34;62.67;98946.69;5076076;28;20247;-65
2022/05/09 06:45:21;;;;;;;9.50;8.60;;;;;;;19.12;68.78;98955.56;5075984;28;20266;-65
2022/05/09 06:47:49;;;;;;;10.70;9.60;;;;;;;18.14;75.17;98962.66;5075885;28;20214;-65
2022/05/09 06:50:17;;;;;;;11.10;10.00;;;;;;;17.57;79.44;98956.97;5075547;28;20677;-65
2022/05/09 06:52:43;;;;;;;11.20;10.20;;;;;;;17.27;83.00;98955.00;5075514;28;20223;-65
2022/05/09 06:55:11;;;;;;;11.87;10.77;;;;;;;17.06;83.79;98961.28;5074135;28;20208;-65
2022/05/09 06:57:38;;;;;;;14.33;10.90;;;;;;;16.93;85.39;98957.91;5075535;28;20212;-65
2022/05/09 07:00:09;;;;;;;11.83;10.63;;;;;;;16.65;86.16;98951.28;5075512;28;20669;-65
2022/05/09 07:02:36;;;;;;;10.40;9.40;;;;;;;16.59;85.45;98957.13;5065005;28;20338;-66
2022/05/09 07:05:04;;;;;;;9.30;8.50;;;;;;;16.55;84.39;98960.16;5075635;28;20234;-65
2022/05/09 07:07:30;;;;;;;9.03;8.13;;;;;;;16.53;86.59;98962.94;5075665;28;20219;-65
2022/05/09 07:09:57;;;;;;;10.33;9.37;;;;;;;16.61;85.98;98963.19;5075366;28;20208;-66
2022/05/09 07:12:23;;;;;;;10.10;9.00;;;;;;;16.63;86.75;98966.59;5075468;28;20212;-65
2022/05/09 07:14:50;;;;;;;9.90;9.00;;;;;;;16.74;86.69;98955.88;5075522;28;20218;-65
2022/05/09 07:17:18;;;;;;;9.60;8.80;;;;;;;16.76;87.91;98963.78;5066322;28;20220;-65
2022/05/09 07:19:44;;;;;;;10.10;9.20;;;;;;;16.89;86.86;98964.47;5075373;28;20584;-65
2022/05/09 07:22:11;;;;;;;9.97;8.97;;;;;;;16.89;85.47;98959.97;5073611;28;20235;-65
2022/05/09 07:24:38;;;;;;;9.30;8.47;;;;;;;16.92;84.95;98965.06;5075040;28;20207;-65
2022/05/09 07:27:05;;;;;;;9.40;8.57;;;;;;;17.07;85.41;98958.47;5075238;28;20214;-66
2022/05/09 07:29:31;;;;;;;10.07;9.07;;;;;;;17.19;85.27;98960.13;5074971;28;20664;-66
2022/05/09 07:31:58;;;;;;;9.30;8.40;;;;;;;17.25;85.48;98962.28;5075135;28;20564;-66
2022/05/09 07:34:26;;;;;;;9.47;8.67;;;;;;;17.32;84.79;98968.81;5074809;28;20302;-66
2022/05/09 07:36:52;;;;;;;9.50;8.60;;;;;;;17.39;83.45;98956.69;5074968;28;20216;-66
2022/05/09 07:39:19;;;;;;;8.70;8.00;;;;;;;17.49;84.18;98967.47;5074941;28;20231;-66
2022/05/09 07:41:45;;;;;;;10.07;9.07;;;;;;;17.53;82.15;98961.72;5074668;28;20211;-65
2022/05/09 07:44:11;;;;;;;10.80;9.70;;;;;;;17.56;82.00;98960.63;5075042;28;20223;-65
2022/05/09 07:46:38;;;;;;;11.17;10.03;;;;;;;17.65;79.17;98967.84;5073181;28;20215;-65
2022/05/09 07:49:05;;;;;;;10.17;9.17;;;;;;;17.39;80.95;98964.72;5074942;28;20226;-66
2022/05/09 07:51:37;;;;;;;10.27;9.20;;;;;;;17.46;82.58;98971.25;5074832;28;20364;-66
2022/05/09 07:54:03;;;;;;;9.67;8.80;;;;;;;17.54;82.20;98970.56;5074747;28;20211;-65
2022/05/09 07:56:30;;;;;;;9.97;8.90;;;;;;;17.65;82.93;98963.34;5074690;28;20211;-65
2022/05/09 07:58:56;;;;;;;8.70;7.80;;;;;;;17.75;81.25;98956.22;5057760;28;20203;-66
2022/05/09 08:01:23;;;;;;;9.37;8.30;;;;;;;17.91;81.71;98967.31;5060064;28;20235;-64
2022/05/09 08:03:49;;;;;;;9.73;8.40;;;;;;;18.16;83.23;98969.59;5058517;28;20244;-65
2022/05/09 08:06:16;;;;;;;8.80;8.00;;;;;;;18.32;81.43;98972.66;5058116;28;20222;-65
2022/05/09 08:08:46;;;;;;;9.53;8.23;;;;;;;18.43;79.17;98972.59;5061403;28;20680;-65
2022/05/09 08:11:13;;;;;;;10.17;8.70;;;;;;;18.52;79.83;98969.06;5060058;28;20212;-65
2022/05/09 08:13:41;;;;;;;8.67;7.87;;;;;;;18.57;79.01;98966.00;5056607;28;20242;-66
2022/05/09 08:16:08;;;;;;;9.60;8.60;;;;;;;18.58;75.34;98973.88;5058274;28;20243;-66
2022/05/09 08:18:35;;;;;;;9.30;8.40;;;;;;;18.55;74.62;98963.47;5061674;28;20219;-66
2022/05/09 08:21:02;;;;;;;9.97;8.97;;;;;;;18.52;75.32;98974.44;5059637;28;20211;-66
2022/05/09 08:23:30;;;;;;;9.47;8.53;;;;;;;18.44;76.92;98966.25;5057918;28;20244;-66
2022/05/09 08:25:58;;;;;;;10.23;9.23;;;;;;;18.56;76.77;98970.50;5058152;28;20306;-66
2022/05/09 08:28:25;;;;;;;9.87;8.80;;;;;;;18.49;75.83;98964.00;5072199;28;20216;-66
2022/05/09 08:30:52;;;;;;;9.20;8.40;;;;;;;18.47;76.42;98975.84;5072301;28;20215;-66
2022/05/09 08:33:22;;;;;;;9.83;8.93;;;;;;;18.62;77.13;98969.97;5065468;28;20219;-66
2022/05/09 08:35:51;;;;;;;10.17;8.77;;;;;;;18.84;75.48;98971.59;5072540;28;20219;-66
2022/05/09 08:38:18;;;;;;;9.03;8.13;;;;;;;18.84;75.55;98963.56;5067336;28;20211;-66
2022/05/09 08:40:54;;;;;;;9.87;8.87;;;;;;;18.99;77.54;98968.38;5070853;28;20222;-66
2022/05/09 08:43:33;;;;;;;9.73;8.83;;;;;;;19.12;73.48;98966.28;5072478;28;20286;-66
2022/05/09 08:46:08;;;;;;;9.80;8.80;;;;;;;19.06;76.38;98963.28;5071855;28;20585;-65
2022/05/09 08:48:55;;;;;;;10.07;9.17;;;;;;;19.11;74.87;98964.59;5072445;28;20218;-66
2022/05/09 08:51:36;;;;;;;9.53;8.70;;;;;;;19.28;73.74;98973.81;5072349;28;20218;-65
2022/05/09 08:54:08;;;;;;;10.43;9.33;;;;;;;19.28;73.93;98966.63;5067074;28;20219;-65
2022/05/09 08:56:35;;;;;;;9.00;8.20;;;;;;;19.33;74.81;98967.03;5072513;28;20226;-65
2022/05/09 08:59:09;;;;;;;8.90;8.03;;;;;;;19.31;72.48;98971.69;5072130;28;20699;-65
2022/05/09 09:01:42;;;;;;;7.67;7.00;;;;;;;19.34;72.73;98966.06;5072123;28;20306;-65
2022/05/09 09:04:21;;;;;;;8.73;7.93;;;;;;;19.50;71.96;98974.38;5071947;28;20325;-66
2022/05/09 09:07:05;;;;;;;8.57;7.80;;;;;;;19.62;70.80;98970.56;5070434;28;20219;-65
2022/05/09 09:09:45;;;;;;;9.83;8.07;;;;;;;19.66;70.44;98969.31;5071918;28;20215;-65
2022/05/09 09:12:21;;;;;;;9.10;8.30;;;;;;;19.74;70.47;98972.09;5071865;28;20211;-65
2022/05/09 09:15:02;;;;;;;8.30;7.60;;;;;;;19.63;70.67;98961.53;5071823;28;20213;-65
2022/05/09 09:17:42;;;;;;;9.33;8.43;;;;;;;19.85;72.54;98963.91;5071767;28;20219;-65
2022/05/09 09:20:18;;;;;;;9.10;8.07;;;;;;;20.01;72.05;98966.00;5071898;28;20583;-65
2022/05/09 09:23:14;;;;;;;8.00;7.20;;;;;;;20.17;70.54;98967.09;5071604;28;20246;-65
2022/05/09 09:25:49;;;;;;;7.87;7.13;;;;;;;20.21;69.25;98968.53;5068065;28;20300;-65
2022/05/09 09:28:19;;;;;;;8.83;7.30;;;;;;;20.26;69.96;98965.41;5070648;28;20676;-65
2022/05/09 09:30:47;;;;;;;8.90;8.10;;;;;;;20.48;68.64;98957.81;5071808;28;20222;-65
2022/05/09 09:33:16;;;;;;;8.93;7.67;;;;;;;20.41;70.13;98963.94;5069763;28;20211;-65
2022/05/09 09:35:50;;;;;;;9.17;7.60;;;;;;;20.48;68.68;98956.97;5071716;28;20214;-66
2022/05/09 09:38:32;;;;;;;8.30;7.30;;;;;;;20.52;68.25;98955.66;5071764;28;20306;-65
2022/05/09 09:41:16;;;;;;;8.57;7.73;;;;;;;20.69;67.78;98960.25;5071718;28;20215;-66
2022/05/09 09:43:42;;;;;;;8.07;7.33;;;;;;;20.75;68.11;98954.28;5071665;28;20260;-67
2022/05/09 09:46:10;;;;;;;8.03;7.33;;;;;;;20.89;66.45;98956.50;5070339;28;20669;-66
2022/05/09 09:48:37;;;;;;;7.53;6.83;;;;;;;21.11;69.79;98954.25;5067925;28;20218;-65
2022/05/09 09:51:06;;;;;;;12.63;7.40;;;;;;;21.27;68.16;98951.72;5071683;28;20215;-66
2022/05/09 09:53:40;;;;;;;8.40;6.83;;;;;;;21.50;65.19;98950.25;5071374;28;20618;-65
2022/05/09 09:56:10;;;;;;;6.90;6.30;;;;;;;21.61;64.44;98952.72;5071669;28;20464;-65
2022/05/09 09:58:39;;;;;;;7.70;7.00;;;;;;;21.75;65.46;98952.19;5073359;28;20698;-65
2022/05/09 10:01:10;;;;;;;8.20;7.40;;;;;;;21.87;63.26;98950.09;5075442;28;20587;-64
2022/05/09 10:03:40;;;;;;;8.27;7.53;;;;;;;21.77;60.02;98950.19;5075164;28;20245;-65
2022/05/09 10:06:19;;;;;;;7.80;7.20;;;;;;;21.61;61.81;98947.34;5075806;28;20208;-66
2022/05/09 10:08:46;;;;;;;8.73;7.83;;;;;;;21.56;60.21;98941.56;5070243;28;20211;-66
2022/05/09 10:11:23;;;;;;;8.53;6.97;;;;;;;21.55;62.16;98944.41;5075433;28;20215;-66
2022/05/09 10:13:51;;;;;;;7.73;7.03;;;;;;;21.62;63.62;98937.41;5075377;28;20215;-66
2022/05/09 10:16:26;;;;;;;7.20;6.60;;;;;;;21.84;65.86;98932.44;5075068;28;20223;-65
2022/05/09 10:18:55;;;;;;;7.27;6.57;;;;;;;22.13;63.55;98935.63;5075230;28;20397;-65
2022/05/09 10:27:25;;;;;;;6.60;6.00;;;;;;;22.74;56.46;98930.09;5064582;28;20215;-65
2022/05/09 10:29:55;;;;;;;6.33;5.77;;;;;;;23.01;55.06;98924.44;5074881;28;20281;-67
2022/05/09 10:32:26;;;;;;;6.77;6.10;;;;;;;23.05;54.03;98923.94;5063722;28;20673;-66
2022/05/09 10:35:00;;;;;;;6.57;5.97;;;;;;;22.83;55.06;98919.19;5074786;28;20212;-66
2022/05/09 10:37:30;;;;;;;6.97;6.27;;;;;;;22.87;53.18;98917.81;5074701;28;20215;-66
2022/05/09 10:40:06;;;;;;;7.40;6.13;;;;;;;22.78;56.08;98916.13;5074662;28;20601;-66
2022/05/09 10:42:39;;;;;;;6.67;6.07;;;;;;;22.80;58.25;98916.81;5074251;28;20254;-66
2022/05/09 10:45:14;;;;;;;6.33;5.73;;;;;;;23.11;54.91;98907.09;5074482;28;20294;-66
2022/05/09 10:47:45;;;;;;;6.23;5.73;;;;;;;23.31;50.72;98903.16;5073801;28;20211;-66
2022/05/09 10:50:18;;;;;;;6.53;5.93;;;;;;;23.40;52.28;98904.81;5073123;28;20222;-66
2022/05/09 10:52:51;;;;;;;5.93;5.43;;;;;;;23.61;51.01;98899.78;5064556;28;20246;-66
2022/05/09 10:55:23;;;;;;;6.13;5.63;;;;;;;23.79;50.90;98896.91;5074296;28;20310;-66
2022/05/09 10:58:01;;;;;;;6.53;5.97;;;;;;;23.63;51.38;98891.50;5074362;28;20220;-66
2022/05/09 11:00:28;;;;;;;6.40;5.80;;;;;;;23.48;49.49;98894.03;5074429;28;20580;-66
2022/05/09 11:03:06;;;;;;;6.27;5.63;;;;;;;23.42;53.11;98883.91;5070824;28;20250;-66
2022/05/09 11:05:47;;;;;;;6.10;5.60;;;;;;;23.51;49.21;98876.66;5074085;28;20747;-65
2022/05/09 11:08:26;;;;;;;6.23;5.73;;;;;;;23.22;50.66;98879.03;5074142;28;20223;-66
2022/05/09 11:11:03;;;;;;;6.50;5.90;;;;;;;23.16;50.11;98885.91;5074091;28;20459;-66
2022/05/09 11:13:41;;;;;;;6.47;5.87;;;;;;;23.21;49.71;98880.88;5073960;28;20211;-66
2022/05/09 11:16:19;;;;;;;6.50;5.90;;;;;;;23.38;48.77;98882.56;5074053;28;20218;-66
2022/05/09 11:19:04;;;;;;;5.80;5.23;;;;;;;23.44;47.74;98870.25;5073318;28;20215;-66
2022/05/09 11:21:41;;;;;;;6.90;4.93;;;;;;;23.62;51.01;98877.19;5074068;28;20612;-66
2022/05/09 11:24:21;;;;;;;5.60;5.10;;;;;;;23.62;48.07;98869.09;5073940;28;20257;-66
2022/05/09 11:26:57;;;;;;;5.00;4.60;;;;;;;23.51;51.16;98872.13;5073646;28;20210;-67
2022/05/09 11:29:48;;;;;;;5.73;5.23;;;;;;;23.45;49.24;98861.13;5068739;28;20218;-65
2022/05/09 11:32:27;;;;;;;6.37;4.87;;;;;;;23.33;50.00;98867.88;5064883;28;20212;-66
2022/05/09 11:35:21;;;;;;;5.30;4.90;;;;;;;23.48;49.52;98866.22;5073732;28;20211;-66
2022/05/09 11:37:59;;;;;;;5.43;4.93;;;;;;;23.75;51.43;98858.59;5073725;28;20231;-66
2022/05/09 11:40:34;;;;;;;5.10;4.70;;;;;;;23.97;47.69;98857.94;5073335;28;20219;-66
2022/05/09 11:43:32;;;;;;;5.30;4.90;;;;;;;23.91;46.06;98847.81;5071324;28;20708;-67
2022/05/09 11:46:08;;;;;;;4.80;4.40;;;;;;;23.93;44.26;98851.19;5064370;28;20220;-66